sensor_id;sensor_type;location;lat;lon;timestamp;P1;durP1;ratioP1;P2;durP2;ratioP2
43994;SDS011;51687;52.160;5.298;2023-06-22T00:00:57;3.93;;;3.53;;
43994;SDS011;51687;52.160;5.298;2023-06-22T00:03:24;3.33;;;3.13;;
43994;SDS011;51687;52.160;5.298;2023-06-22T00:05:51;3.55;;;3.22;;
43994;SDS011;51687;52.160;5.298;2023-06-22T00:08:19;4.77;;;3.60;;
43994;SDS011;51687;52.160;5.298;2023-06-22T00:10:46;3.97;;;3.28;;
43994;SDS011;51687;52.160;5.298;2023-06-22T00:13:13;3.67;;;3.15;;
43994;SDS011;51687;52.160;5.298;2023-06-22T00:15:42;5.03;;;3.30;;
43994;SDS011;51687;52.160;5.298;2023-06-22T00:18:09;3.55;;;3.25;;
43994;SDS011;51687;52.160;5.298;2023-06-22T00:23:05;3.70;;;3.40;;
43994;SDS011;51687;52.160;5.298;2023-06-22T00:25:36;4.28;;;3.88;;
43994;SDS011;51687;52.160;5.298;2023-06-22T00:28:04;4.40;;;4.10;;
43994;SDS011;51687;52.160;5.298;2023-06-22T00:32:59;3.40;;;3.10;;
43994;SDS011;51687;52.160;5.298;2023-06-22T00:35:27;3.88;;;3.60;;
43994;SDS011;51687;52.160;5.298;2023-06-22T00:37:58;4.30;;;3.83;;
43994;SDS011;51687;52.160;5.298;2023-06-22T00:40:33;3.90;;;3.60;;
43994;SDS011;51687;52.160;5.298;2023-06-22T00:43:00;4.13;;;3.83;;
43994;SDS011;51687;52.160;5.298;2023-06-22T00:45:28;4.50;;;4.25;;
43994;SDS011;51687;52.160;5.298;2023-06-22T00:47:56;4.15;;;3.78;;
43994;SDS011;51687;52.160;5.298;2023-06-22T00:50:24;4.22;;;3.92;;
43994;SDS011;51687;52.160;5.298;2023-06-22T00:52:53;5.13;;;4.35;;
43994;SDS011;51687;52.160;5.298;2023-06-22T00:55:23;4.78;;;4.38;;
43994;SDS011;51687;52.160;5.298;2023-06-22T00:57:50;4.82;;;4.43;;
43994;SDS011;51687;52.160;5.298;2023-06-22T01:00:17;4.35;;;4.05;;
43994;SDS011;51687;52.160;5.298;2023-06-22T01:02:46;4.38;;;4.07;;
43994;SDS011;51687;52.160;5.298;2023-06-22T01:05:13;5.10;;;3.72;;
43994;SDS011;51687;52.160;5.298;2023-06-22T01:07:52;4.72;;;3.47;;
43994;SDS011;51687;52.160;5.298;2023-06-22T01:10:27;4.30;;;3.85;;
43994;SDS011;51687;52.160;5.298;2023-06-22T01:12:58;3.53;;;3.22;;
43994;SDS011;51687;52.160;5.298;2023-06-22T01:15:28;4.75;;;4.35;;
43994;SDS011;51687;52.160;5.298;2023-06-22T01:18:17;4.32;;;3.92;;
43994;SDS011;51687;52.160;5.298;2023-06-22T01:20:45;3.83;;;3.53;;
43994;SDS011;51687;52.160;5.298;2023-06-22T01:26:03;3.63;;;3.28;;
43994;SDS011;51687;52.160;5.298;2023-06-22T01:28:48;3.80;;;3.35;;
43994;SDS011;51687;52.160;5.298;2023-06-22T01:31:20;4.00;;;3.70;;
43994;SDS011;51687;52.160;5.298;2023-06-22T01:33:50;3.70;;;3.40;;
43994;SDS011;51687;52.160;5.298;2023-06-22T01:36:19;3.80;;;3.50;;
43994;SDS011;51687;52.160;5.298;2023-06-22T01:38:48;4.10;;;3.70;;
43994;SDS011;51687;52.160;5.298;2023-06-22T01:41:16;4.40;;;3.83;;
43994;SDS011;51687;52.160;5.298;2023-06-22T01:46:11;4.10;;;3.75;;
43994;SDS011;51687;52.160;5.298;2023-06-22T01:48:39;4.60;;;4.30;;
43994;SDS011;51687;52.160;5.298;2023-06-22T01:51:06;4.07;;;3.78;;
43994;SDS011;51687;52.160;5.298;2023-06-22T01:53:32;4.18;;;3.78;;
43994;SDS011;51687;52.160;5.298;2023-06-22T01:55:59;4.00;;;3.70;;
43994;SDS011;51687;52.160;5.298;2023-06-22T01:58:26;3.78;;;3.47;;
43994;SDS011;51687;52.160;5.298;2023-06-22T02:00:57;4.32;;;3.90;;
43994;SDS011;51687;52.160;5.298;2023-06-22T02:03:26;4.25;;;3.95;;
43994;SDS011;51687;52.160;5.298;2023-06-22T02:06:00;4.95;;;4.07;;
43994;SDS011;51687;52.160;5.298;2023-06-22T02:08:29;5.35;;;4.95;;
43994;SDS011;51687;52.160;5.298;2023-06-22T02:10:57;4.10;;;3.80;;
43994;SDS011;51687;52.160;5.298;2023-06-22T02:13:25;4.43;;;4.13;;
43994;SDS011;51687;52.160;5.298;2023-06-22T02:15:52;4.60;;;4.25;;
43994;SDS011;51687;52.160;5.298;2023-06-22T02:18:20;4.95;;;4.55;;
43994;SDS011;51687;52.160;5.298;2023-06-22T02:20:47;5.03;;;4.60;;
43994;SDS011;51687;52.160;5.298;2023-06-22T02:23:14;5.97;;;4.78;;
43994;SDS011;51687;52.160;5.298;2023-06-22T02:25:41;5.28;;;4.88;;
43994;SDS011;51687;52.160;5.298;2023-06-22T02:28:10;4.60;;;4.30;;
43994;SDS011;51687;52.160;5.298;2023-06-22T02:30:37;5.13;;;4.70;;
43994;SDS011;51687;52.160;5.298;2023-06-22T02:33:05;4.78;;;4.47;;
43994;SDS011;51687;52.160;5.298;2023-06-22T02:35:32;4.30;;;3.92;;
43994;SDS011;51687;52.160;5.298;2023-06-22T02:38:02;5.22;;;4.82;;
43994;SDS011;51687;52.160;5.298;2023-06-22T02:40:30;4.72;;;4.25;;
43994;SDS011;51687;52.160;5.298;2023-06-22T02:42:58;5.13;;;4.72;;
43994;SDS011;51687;52.160;5.298;2023-06-22T02:45:28;4.95;;;4.55;;
43994;SDS011;51687;52.160;5.298;2023-06-22T02:47:56;5.23;;;4.80;;
43994;SDS011;51687;52.160;5.298;2023-06-22T02:50:23;4.97;;;4.57;;
43994;SDS011;51687;52.160;5.298;2023-06-22T02:52:50;5.30;;;4.80;;
43994;SDS011;51687;52.160;5.298;2023-06-22T02:55:17;5.40;;;5.00;;
43994;SDS011;51687;52.160;5.298;2023-06-22T02:57:44;5.63;;;5.18;;
43994;SDS011;51687;52.160;5.298;2023-06-22T03:00:13;5.25;;;4.72;;
43994;SDS011;51687;52.160;5.298;2023-06-22T03:02:44;5.13;;;4.82;;
43994;SDS011;51687;52.160;5.298;2023-06-22T03:05:15;5.97;;;5.50;;
43994;SDS011;51687;52.160;5.298;2023-06-22T03:07:44;5.80;;;5.10;;
43994;SDS011;51687;52.160;5.298;2023-06-22T03:10:13;5.72;;;5.28;;
43994;SDS011;51687;52.160;5.298;2023-06-22T03:12:40;5.72;;;5.32;;
43994;SDS011;51687;52.160;5.298;2023-06-22T03:15:09;6.40;;;5.80;;
43994;SDS011;51687;52.160;5.298;2023-06-22T03:17:38;6.18;;;5.65;;
43994;SDS011;51687;52.160;5.298;2023-06-22T03:20:06;6.38;;;5.88;;
43994;SDS011;51687;52.160;5.298;2023-06-22T03:22:40;6.10;;;5.70;;
43994;SDS011;51687;52.160;5.298;2023-06-22T03:25:08;8.07;;;6.30;;
43994;SDS011;51687;52.160;5.298;2023-06-22T03:27:36;6.10;;;5.70;;
43994;SDS011;51687;52.160;5.298;2023-06-22T03:30:04;6.20;;;5.60;;
43994;SDS011;51687;52.160;5.298;2023-06-22T03:32:31;6.30;;;5.80;;
43994;SDS011;51687;52.160;5.298;2023-06-22T03:34:58;6.20;;;5.80;;
43994;SDS011;51687;52.160;5.298;2023-06-22T03:37:25;6.30;;;5.90;;
43994;SDS011;51687;52.160;5.298;2023-06-22T03:39:53;6.53;;;5.85;;
43994;SDS011;51687;52.160;5.298;2023-06-22T03:42:19;6.03;;;5.57;;
43994;SDS011;51687;52.160;5.298;2023-06-22T03:44:46;6.70;;;6.20;;
43994;SDS011;51687;52.160;5.298;2023-06-22T03:47:14;6.80;;;6.30;;
43994;SDS011;51687;52.160;5.298;2023-06-22T03:49:40;6.72;;;6.15;;
43994;SDS011;51687;52.160;5.298;2023-06-22T03:52:08;6.18;;;5.78;;
43994;SDS011;51687;52.160;5.298;2023-06-22T03:54:37;6.32;;;5.88;;
43994;SDS011;51687;52.160;5.298;2023-06-22T03:57:03;6.68;;;6.03;;
43994;SDS011;51687;52.160;5.298;2023-06-22T03:59:30;6.65;;;6.05;;
43994;SDS011;51687;52.160;5.298;2023-06-22T04:01:58;5.90;;;5.50;;
43994;SDS011;51687;52.160;5.298;2023-06-22T04:04:25;6.15;;;5.75;;
43994;SDS011;51687;52.160;5.298;2023-06-22T04:06:52;6.63;;;6.13;;
43994;SDS011;51687;52.160;5.298;2023-06-22T04:09:19;6.32;;;5.82;;
43994;SDS011;51687;52.160;5.298;2023-06-22T04:11:48;6.53;;;6.03;;
43994;SDS011;51687;52.160;5.298;2023-06-22T04:14:15;6.60;;;6.10;;
43994;SDS011;51687;52.160;5.298;2023-06-22T04:16:43;5.82;;;5.43;;
43994;SDS011;51687;52.160;5.298;2023-06-22T04:19:10;6.70;;;6.20;;
43994;SDS011;51687;52.160;5.298;2023-06-22T04:21:42;8.45;;;6.00;;
43994;SDS011;51687;52.160;5.298;2023-06-22T04:24:11;7.38;;;6.78;;
43994;SDS011;51687;52.160;5.298;2023-06-22T04:26:37;6.35;;;5.85;;
43994;SDS011;51687;52.160;5.298;2023-06-22T04:29:04;7.15;;;6.55;;
43994;SDS011;51687;52.160;5.298;2023-06-22T04:31:35;6.72;;;6.22;;
43994;SDS011;51687;52.160;5.298;2023-06-22T04:34:05;6.50;;;6.10;;
43994;SDS011;51687;52.160;5.298;2023-06-22T04:36:34;6.85;;;6.35;;
43994;SDS011;51687;52.160;5.298;2023-06-22T04:39:05;7.70;;;7.10;;
43994;SDS011;51687;52.160;5.298;2023-06-22T04:41:36;10.55;;;9.75;;
43994;SDS011;51687;52.160;5.298;2023-06-22T04:44:14;9.48;;;8.77;;
43994;SDS011;51687;52.160;5.298;2023-06-22T04:46:50;9.32;;;8.60;;
43994;SDS011;51687;52.160;5.298;2023-06-22T04:49:26;13.73;;;12.68;;
43994;SDS011;51687;52.160;5.298;2023-06-22T04:51:59;15.85;;;14.55;;
43994;SDS011;51687;52.160;5.298;2023-06-22T04:54:27;17.45;;;15.95;;
43994;SDS011;51687;52.160;5.298;2023-06-22T04:56:54;18.33;;;16.73;;
43994;SDS011;51687;52.160;5.298;2023-06-22T04:59:24;15.27;;;14.07;;
43994;SDS011;51687;52.160;5.298;2023-06-22T05:01:54;17.73;;;16.23;;
43994;SDS011;51687;52.160;5.298;2023-06-22T05:04:25;14.57;;;13.38;;
43994;SDS011;51687;52.160;5.298;2023-06-22T05:06:54;16.40;;;15.10;;
43994;SDS011;51687;52.160;5.298;2023-06-22T05:09:21;18.95;;;17.48;;
43994;SDS011;51687;52.160;5.298;2023-06-22T05:11:48;19.55;;;18.13;;
43994;SDS011;51687;52.160;5.298;2023-06-22T05:14:15;21.02;;;19.25;;
43994;SDS011;51687;52.160;5.298;2023-06-22T05:16:42;21.52;;;19.73;;
43994;SDS011;51687;52.160;5.298;2023-06-22T05:19:10;22.42;;;20.10;;
43994;SDS011;51687;52.160;5.298;2023-06-22T05:21:37;23.58;;;21.10;;
43994;SDS011;51687;52.160;5.298;2023-06-22T05:24:04;22.33;;;20.63;;
43994;SDS011;51687;52.160;5.298;2023-06-22T05:26:32;22.47;;;20.67;;
43994;SDS011;51687;52.160;5.298;2023-06-22T05:29:00;25.00;;;22.85;;
43994;SDS011;51687;52.160;5.298;2023-06-22T05:31:27;27.35;;;24.40;;
43994;SDS011;51687;52.160;5.298;2023-06-22T05:33:56;26.67;;;24.63;;
43994;SDS011;51687;52.160;5.298;2023-06-22T05:36:23;25.73;;;23.33;;
43994;SDS011;51687;52.160;5.298;2023-06-22T05:38:53;26.30;;;23.80;;
43994;SDS011;51687;52.160;5.298;2023-06-22T05:41:20;29.60;;;26.48;;
43994;SDS011;51687;52.160;5.298;2023-06-22T05:43:47;29.80;;;26.92;;
43994;SDS011;51687;52.160;5.298;2023-06-22T05:46:14;31.60;;;28.48;;
43994;SDS011;51687;52.160;5.298;2023-06-22T05:48:42;30.88;;;27.98;;
43994;SDS011;51687;52.160;5.298;2023-06-22T05:51:09;30.08;;;27.33;;
43994;SDS011;51687;52.160;5.298;2023-06-22T05:53:36;31.93;;;28.90;;
43994;SDS011;51687;52.160;5.298;2023-06-22T05:56:03;33.17;;;29.88;;
43994;SDS011;51687;52.160;5.298;2023-06-22T05:58:31;34.60;;;30.58;;
43994;SDS011;51687;52.160;5.298;2023-06-22T06:00:58;33.67;;;30.23;;
43994;SDS011;51687;52.160;5.298;2023-06-22T06:03:26;33.83;;;30.73;;
43994;SDS011;51687;52.160;5.298;2023-06-22T06:08:22;32.40;;;29.30;;
43994;SDS011;51687;52.160;5.298;2023-06-22T06:10:48;40.63;;;31.38;;
43994;SDS011;51687;52.160;5.298;2023-06-22T06:13:15;34.00;;;30.38;;
43994;SDS011;51687;52.160;5.298;2023-06-22T06:15:42;35.55;;;31.90;;
43994;SDS011;51687;52.160;5.298;2023-06-22T06:18:09;35.60;;;31.13;;
43994;SDS011;51687;52.160;5.298;2023-06-22T06:20:35;37.97;;;34.00;;
43994;SDS011;51687;52.160;5.298;2023-06-22T06:23:02;35.13;;;31.63;;
43994;SDS011;51687;52.160;5.298;2023-06-22T06:25:29;34.75;;;31.13;;
43994;SDS011;51687;52.160;5.298;2023-06-22T06:27:56;36.75;;;33.17;;
43994;SDS011;51687;52.160;5.298;2023-06-22T06:30:24;35.13;;;31.88;;
43994;SDS011;51687;52.160;5.298;2023-06-22T06:32:51;36.88;;;33.00;;
43994;SDS011;51687;52.160;5.298;2023-06-22T06:35:18;35.63;;;32.08;;
43994;SDS011;51687;52.160;5.298;2023-06-22T06:37:47;35.53;;;31.90;;
43994;SDS011;51687;52.160;5.298;2023-06-22T06:40:16;32.47;;;29.45;;
43994;SDS011;51687;52.160;5.298;2023-06-22T06:42:45;35.15;;;31.95;;
43994;SDS011;51687;52.160;5.298;2023-06-22T06:45:15;34.30;;;31.00;;
43994;SDS011;51687;52.160;5.298;2023-06-22T06:47:42;33.63;;;30.10;;
43994;SDS011;51687;52.160;5.298;2023-06-22T06:50:10;35.30;;;31.73;;
43994;SDS011;51687;52.160;5.298;2023-06-22T06:52:37;33.37;;;29.90;;
43994;SDS011;51687;52.160;5.298;2023-06-22T06:55:05;34.17;;;31.20;;
43994;SDS011;51687;52.160;5.298;2023-06-22T06:57:38;32.97;;;29.88;;
43994;SDS011;51687;52.160;5.298;2023-06-22T07:00:06;34.22;;;31.23;;
43994;SDS011;51687;52.160;5.298;2023-06-22T07:02:35;30.55;;;27.75;;
43994;SDS011;51687;52.160;5.298;2023-06-22T07:05:03;32.35;;;29.33;;
43994;SDS011;51687;52.160;5.298;2023-06-22T07:07:30;34.23;;;29.80;;
43994;SDS011;51687;52.160;5.298;2023-06-22T07:09:58;30.77;;;27.67;;
43994;SDS011;51687;52.160;5.298;2023-06-22T07:12:25;28.73;;;26.33;;
43994;SDS011;51687;52.160;5.298;2023-06-22T07:14:52;27.90;;;25.58;;
43994;SDS011;51687;52.160;5.298;2023-06-22T07:17:19;29.48;;;26.88;;
43994;SDS011;51687;52.160;5.298;2023-06-22T07:19:46;29.67;;;26.85;;
43994;SDS011;51687;52.160;5.298;2023-06-22T07:22:12;28.25;;;25.77;;
43994;SDS011;51687;52.160;5.298;2023-06-22T07:24:39;26.63;;;24.20;;
43994;SDS011;51687;52.160;5.298;2023-06-22T07:27:09;27.27;;;24.60;;
43994;SDS011;51687;52.160;5.298;2023-06-22T07:29:37;26.92;;;24.65;;
43994;SDS011;51687;52.160;5.298;2023-06-22T07:32:06;25.70;;;23.48;;
43994;SDS011;51687;52.160;5.298;2023-06-22T07:34:34;26.08;;;23.80;;
43994;SDS011;51687;52.160;5.298;2023-06-22T07:37:01;25.85;;;23.88;;
43994;SDS011;51687;52.160;5.298;2023-06-22T07:39:28;27.37;;;25.03;;
43994;SDS011;51687;52.160;5.298;2023-06-22T07:41:55;27.10;;;24.98;;
43994;SDS011;51687;52.160;5.298;2023-06-22T07:44:23;28.08;;;23.70;;
43994;SDS011;51687;52.160;5.298;2023-06-22T07:46:50;25.63;;;23.83;;
43994;SDS011;51687;52.160;5.298;2023-06-22T07:49:18;25.65;;;23.15;;
43994;SDS011;51687;52.160;5.298;2023-06-22T07:51:45;25.73;;;23.63;;
43994;SDS011;51687;52.160;5.298;2023-06-22T07:54:12;25.60;;;23.45;;
43994;SDS011;51687;52.160;5.298;2023-06-22T07:56:41;25.75;;;23.10;;
43994;SDS011;51687;52.160;5.298;2023-06-22T07:59:09;25.43;;;22.80;;
43994;SDS011;51687;52.160;5.298;2023-06-22T08:01:36;18.90;;;17.40;;
43994;SDS011;51687;52.160;5.298;2023-06-22T08:04:03;17.65;;;16.02;;
43994;SDS011;51687;52.160;5.298;2023-06-22T08:06:32;17.70;;;16.17;;
43994;SDS011;51687;52.160;5.298;2023-06-22T08:08:59;17.40;;;15.85;;
43994;SDS011;51687;52.160;5.298;2023-06-22T08:11:26;15.70;;;14.40;;
43994;SDS011;51687;52.160;5.298;2023-06-22T08:13:54;13.13;;;11.98;;
43994;SDS011;51687;52.160;5.298;2023-06-22T08:16:22;14.48;;;13.18;;
43994;SDS011;51687;52.160;5.298;2023-06-22T08:18:48;14.30;;;13.23;;
43994;SDS011;51687;52.160;5.298;2023-06-22T08:21:15;13.55;;;12.38;;
43994;SDS011;51687;52.160;5.298;2023-06-22T08:23:43;12.50;;;11.48;;
43994;SDS011;51687;52.160;5.298;2023-06-22T08:26:10;15.05;;;10.38;;
43994;SDS011;51687;52.160;5.298;2023-06-22T08:28:37;10.43;;;9.30;;
43994;SDS011;51687;52.160;5.298;2023-06-22T08:31:04;11.20;;;10.15;;
43994;SDS011;51687;52.160;5.298;2023-06-22T08:33:31;9.77;;;8.88;;
43994;SDS011;51687;52.160;5.298;2023-06-22T08:35:59;10.07;;;9.27;;
43994;SDS011;51687;52.160;5.298;2023-06-22T08:38:26;10.83;;;9.80;;
43994;SDS011;51687;52.160;5.298;2023-06-22T08:40:53;10.70;;;9.70;;
43994;SDS011;51687;52.160;5.298;2023-06-22T08:43:20;9.30;;;8.60;;
43994;SDS011;51687;52.160;5.298;2023-06-22T08:45:48;9.32;;;8.52;;
43994;SDS011;51687;52.160;5.298;2023-06-22T08:48:15;9.15;;;8.35;;
43994;SDS011;51687;52.160;5.298;2023-06-22T08:50:42;7.18;;;6.45;;
43994;SDS011;51687;52.160;5.298;2023-06-22T08:53:09;6.82;;;6.20;;
43994;SDS011;51687;52.160;5.298;2023-06-22T08:55:36;7.90;;;7.13;;
43994;SDS011;51687;52.160;5.298;2023-06-22T08:58:03;8.50;;;7.65;;
43994;SDS011;51687;52.160;5.298;2023-06-22T09:00:30;10.63;;;7.70;;
43994;SDS011;51687;52.160;5.298;2023-06-22T09:03:00;7.57;;;6.95;;
43994;SDS011;51687;52.160;5.298;2023-06-22T09:05:28;6.80;;;6.20;;
43994;SDS011;51687;52.160;5.298;2023-06-22T09:07:56;7.13;;;6.53;;
43994;SDS011;51687;52.160;5.298;2023-06-22T09:10:23;10.43;;;6.68;;
43994;SDS011;51687;52.160;5.298;2023-06-22T09:12:49;6.20;;;5.70;;
43994;SDS011;51687;52.160;5.298;2023-06-22T09:15:16;5.72;;;5.25;;
43994;SDS011;51687;52.160;5.298;2023-06-22T09:17:44;6.25;;;5.75;;
43994;SDS011;51687;52.160;5.298;2023-06-22T09:20:12;7.32;;;6.40;;
43994;SDS011;51687;52.160;5.298;2023-06-22T09:22:39;7.07;;;6.47;;
43994;SDS011;51687;52.160;5.298;2023-06-22T09:25:06;6.72;;;6.22;;
43994;SDS011;51687;52.160;5.298;2023-06-22T09:27:34;5.80;;;5.22;;
43994;SDS011;51687;52.160;5.298;2023-06-22T09:30:01;6.35;;;5.15;;
43994;SDS011;51687;52.160;5.298;2023-06-22T09:32:29;5.13;;;4.72;;
43994;SDS011;51687;52.160;5.298;2023-06-22T09:34:57;5.45;;;4.95;;
43994;SDS011;51687;52.160;5.298;2023-06-22T09:37:24;6.63;;;6.03;;
43994;SDS011;51687;52.160;5.298;2023-06-22T09:39:51;6.95;;;6.10;;
43994;SDS011;51687;52.160;5.298;2023-06-22T09:42:18;5.72;;;5.13;;
43994;SDS011;51687;52.160;5.298;2023-06-22T09:44:48;5.47;;;5.07;;
43994;SDS011;51687;52.160;5.298;2023-06-22T09:47:15;6.07;;;5.57;;
43994;SDS011;51687;52.160;5.298;2023-06-22T09:49:42;5.30;;;4.90;;
43994;SDS011;51687;52.160;5.298;2023-06-22T09:52:14;6.00;;;5.38;;
43994;SDS011;51687;52.160;5.298;2023-06-22T09:54:41;7.82;;;6.00;;
43994;SDS011;51687;52.160;5.298;2023-06-22T09:57:08;6.82;;;5.55;;
43994;SDS011;51687;52.160;5.298;2023-06-22T09:59:35;7.05;;;5.63;;
43994;SDS011;51687;52.160;5.298;2023-06-22T10:02:05;7.78;;;7.18;;
43994;SDS011;51687;52.160;5.298;2023-06-22T10:04:33;7.95;;;7.18;;
43994;SDS011;51687;52.160;5.298;2023-06-22T10:09:27;9.03;;;8.23;;
43994;SDS011;51687;52.160;5.298;2023-06-22T10:11:55;8.43;;;7.72;;
43994;SDS011;51687;52.160;5.298;2023-06-22T10:14:22;8.63;;;7.77;;
43994;SDS011;51687;52.160;5.298;2023-06-22T10:19:18;8.20;;;7.38;;
43994;SDS011;51687;52.160;5.298;2023-06-22T10:21:45;7.90;;;7.30;;
43994;SDS011;51687;52.160;5.298;2023-06-22T10:24:12;9.63;;;6.35;;
43994;SDS011;51687;52.160;5.298;2023-06-22T10:26:39;7.40;;;6.70;;
43994;SDS011;51687;52.160;5.298;2023-06-22T10:29:07;8.07;;;7.43;;
43994;SDS011;51687;52.160;5.298;2023-06-22T10:31:42;8.95;;;8.25;;
43994;SDS011;51687;52.160;5.298;2023-06-22T10:34:09;7.50;;;6.90;;
43994;SDS011;51687;52.160;5.298;2023-06-22T10:36:36;8.63;;;7.93;;
43994;SDS011;51687;52.160;5.298;2023-06-22T10:39:04;9.95;;;9.20;;
43994;SDS011;51687;52.160;5.298;2023-06-22T10:41:31;10.57;;;9.68;;
43994;SDS011;51687;52.160;5.298;2023-06-22T10:43:59;9.13;;;8.43;;
43994;SDS011;51687;52.160;5.298;2023-06-22T10:46:27;12.60;;;9.60;;
43994;SDS011;51687;52.160;5.298;2023-06-22T10:48:54;9.80;;;8.55;;
43994;SDS011;51687;52.160;5.298;2023-06-22T10:51:23;8.70;;;8.00;;
43994;SDS011;51687;52.160;5.298;2023-06-22T10:53:50;9.63;;;8.70;;
43994;SDS011;51687;52.160;5.298;2023-06-22T10:56:17;9.77;;;9.05;;
43994;SDS011;51687;52.160;5.298;2023-06-22T10:58:45;9.52;;;8.65;;
43994;SDS011;51687;52.160;5.298;2023-06-22T11:01:13;9.00;;;8.30;;
43994;SDS011;51687;52.160;5.298;2023-06-22T11:03:59;10.18;;;9.27;;
43994;SDS011;51687;52.160;5.298;2023-06-22T11:06:26;12.07;;;9.43;;
43994;SDS011;51687;52.160;5.298;2023-06-22T11:08:54;10.55;;;9.45;;
43994;SDS011;51687;52.160;5.298;2023-06-22T11:11:30;9.75;;;9.00;;
43994;SDS011;51687;52.160;5.298;2023-06-22T11:13:57;9.10;;;8.30;;
43994;SDS011;51687;52.160;5.298;2023-06-22T11:16:24;8.70;;;7.90;;
43994;SDS011;51687;52.160;5.298;2023-06-22T11:18:51;8.50;;;7.90;;
43994;SDS011;51687;52.160;5.298;2023-06-22T11:21:18;8.15;;;7.35;;
43994;SDS011;51687;52.160;5.298;2023-06-22T11:23:45;8.35;;;7.40;;
43994;SDS011;51687;52.160;5.298;2023-06-22T11:26:13;9.18;;;8.32;;
43994;SDS011;51687;52.160;5.298;2023-06-22T11:28:40;9.68;;;8.20;;
43994;SDS011;51687;52.160;5.298;2023-06-22T11:31:07;8.73;;;8.13;;
43994;SDS011;51687;52.160;5.298;2023-06-22T11:33:52;7.97;;;7.35;;
43994;SDS011;51687;52.160;5.298;2023-06-22T11:38:47;10.55;;;8.00;;
43994;SDS011;51687;52.160;5.298;2023-06-22T11:41:14;9.40;;;8.50;;
43994;SDS011;51687;52.160;5.298;2023-06-22T11:43:41;8.02;;;7.43;;
43994;SDS011;51687;52.160;5.298;2023-06-22T11:46:09;9.45;;;8.73;;
43994;SDS011;51687;52.160;5.298;2023-06-22T11:48:36;10.27;;;8.35;;
43994;SDS011;51687;52.160;5.298;2023-06-22T11:51:05;10.73;;;9.93;;
43994;SDS011;51687;52.160;5.298;2023-06-22T11:53:34;10.10;;;9.15;;
43994;SDS011;51687;52.160;5.298;2023-06-22T11:56:01;10.45;;;9.65;;
43994;SDS011;51687;52.160;5.298;2023-06-22T11:58:28;10.70;;;9.67;;
43994;SDS011;51687;52.160;5.298;2023-06-22T12:00:56;10.07;;;9.27;;
43994;SDS011;51687;52.160;5.298;2023-06-22T12:03:23;9.65;;;8.77;;
43994;SDS011;51687;52.160;5.298;2023-06-22T12:05:50;9.70;;;8.90;;
43994;SDS011;51687;52.160;5.298;2023-06-22T12:08:18;9.05;;;8.35;;
43994;SDS011;51687;52.160;5.298;2023-06-22T12:10:46;8.77;;;8.07;;
43994;SDS011;51687;52.160;5.298;2023-06-22T12:13:13;8.70;;;8.07;;
43994;SDS011;51687;52.160;5.298;2023-06-22T12:15:46;8.63;;;7.97;;
43994;SDS011;51687;52.160;5.298;2023-06-22T12:18:13;7.95;;;7.25;;
43994;SDS011;51687;52.160;5.298;2023-06-22T12:20:41;8.50;;;7.78;;
43994;SDS011;51687;52.160;5.298;2023-06-22T12:23:08;8.40;;;7.80;;
43994;SDS011;51687;52.160;5.298;2023-06-22T12:25:35;8.20;;;7.53;;
43994;SDS011;51687;52.160;5.298;2023-06-22T12:28:03;8.50;;;7.85;;
43994;SDS011;51687;52.160;5.298;2023-06-22T12:30:32;8.88;;;8.18;;
43994;SDS011;51687;52.160;5.298;2023-06-22T12:32:59;8.70;;;7.72;;
43994;SDS011;51687;52.160;5.298;2023-06-22T12:35:27;9.05;;;7.43;;
43994;SDS011;51687;52.160;5.298;2023-06-22T12:37:54;10.10;;;9.40;;
43994;SDS011;51687;52.160;5.298;2023-06-22T12:40:21;11.70;;;10.50;;
43994;SDS011;51687;52.160;5.298;2023-06-22T12:42:48;12.30;;;11.02;;
43994;SDS011;51687;52.160;5.298;2023-06-22T12:45:15;13.23;;;12.07;;
43994;SDS011;51687;52.160;5.298;2023-06-22T12:47:43;12.75;;;11.75;;
43994;SDS011;51687;52.160;5.298;2023-06-22T12:50:10;12.55;;;11.65;;
43994;SDS011;51687;52.160;5.298;2023-06-22T12:52:37;12.70;;;11.70;;
43994;SDS011;51687;52.160;5.298;2023-06-22T12:55:06;12.27;;;11.38;;
43994;SDS011;51687;52.160;5.298;2023-06-22T12:57:33;12.95;;;11.95;;
43994;SDS011;51687;52.160;5.298;2023-06-22T13:00:01;13.27;;;12.15;;
43994;SDS011;51687;52.160;5.298;2023-06-22T13:02:30;13.75;;;12.40;;
43994;SDS011;51687;52.160;5.298;2023-06-22T13:04:58;16.67;;;12.50;;
43994;SDS011;51687;52.160;5.298;2023-06-22T13:07:28;13.65;;;12.52;;
43994;SDS011;51687;52.160;5.298;2023-06-22T13:09:55;13.63;;;12.27;;
43994;SDS011;51687;52.160;5.298;2023-06-22T13:12:22;13.05;;;11.85;;
43994;SDS011;51687;52.160;5.298;2023-06-22T13:14:50;13.50;;;12.48;;
43994;SDS011;51687;52.160;5.298;2023-06-22T13:17:17;14.32;;;12.90;;
43994;SDS011;51687;52.160;5.298;2023-06-22T13:19:44;13.48;;;12.48;;
43994;SDS011;51687;52.160;5.298;2023-06-22T13:24:59;13.63;;;12.73;;
43994;SDS011;51687;52.160;5.298;2023-06-22T13:27:26;14.75;;;13.68;;
43994;SDS011;51687;52.160;5.298;2023-06-22T13:29:53;15.73;;;12.98;;
43994;SDS011;51687;52.160;5.298;2023-06-22T13:32:21;14.85;;;13.35;;
43994;SDS011;51687;52.160;5.298;2023-06-22T13:34:48;14.60;;;13.13;;
43994;SDS011;51687;52.160;5.298;2023-06-22T13:37:15;14.10;;;12.90;;
43994;SDS011;51687;52.160;5.298;2023-06-22T13:39:42;15.40;;;14.07;;
43994;SDS011;51687;52.160;5.298;2023-06-22T13:42:09;14.13;;;12.88;;
43994;SDS011;51687;52.160;5.298;2023-06-22T13:44:37;14.15;;;12.93;;
43994;SDS011;51687;52.160;5.298;2023-06-22T13:47:05;14.25;;;13.25;;
43994;SDS011;51687;52.160;5.298;2023-06-22T13:49:33;13.82;;;12.93;;
43994;SDS011;51687;52.160;5.298;2023-06-22T13:52:00;14.65;;;12.68;;
43994;SDS011;51687;52.160;5.298;2023-06-22T13:54:27;14.40;;;13.25;;
43994;SDS011;51687;52.160;5.298;2023-06-22T13:56:56;13.43;;;12.10;;
43994;SDS011;51687;52.160;5.298;2023-06-22T13:59:24;13.50;;;12.30;;
43994;SDS011;51687;52.160;5.298;2023-06-22T14:01:54;14.27;;;12.88;;
43994;SDS011;51687;52.160;5.298;2023-06-22T14:04:22;13.45;;;12.45;;
43994;SDS011;51687;52.160;5.298;2023-06-22T14:06:50;14.60;;;13.50;;
43994;SDS011;51687;52.160;5.298;2023-06-22T14:09:21;14.70;;;13.60;;
43994;SDS011;51687;52.160;5.298;2023-06-22T14:14:15;15.15;;;13.98;;
43994;SDS011;51687;52.160;5.298;2023-06-22T14:16:43;14.85;;;13.75;;
43994;SDS011;51687;52.160;5.298;2023-06-22T14:19:10;16.45;;;15.07;;
43994;SDS011;51687;52.160;5.298;2023-06-22T14:21:43;16.30;;;15.10;;
43994;SDS011;51687;52.160;5.298;2023-06-22T14:24:10;16.20;;;15.00;;
43994;SDS011;51687;52.160;5.298;2023-06-22T14:26:37;16.25;;;14.85;;
43994;SDS011;51687;52.160;5.298;2023-06-22T14:29:04;15.18;;;14.10;;
43994;SDS011;51687;52.160;5.298;2023-06-22T14:31:31;15.45;;;14.02;;
43994;SDS011;51687;52.160;5.298;2023-06-22T14:33:59;14.45;;;13.30;;
43994;SDS011;51687;52.160;5.298;2023-06-22T14:36:26;13.10;;;11.95;;
43994;SDS011;51687;52.160;5.298;2023-06-22T14:38:53;14.18;;;13.18;;
43994;SDS011;51687;52.160;5.298;2023-06-22T14:41:20;14.98;;;13.88;;
43994;SDS011;51687;52.160;5.298;2023-06-22T14:43:49;12.70;;;11.80;;
43994;SDS011;51687;52.160;5.298;2023-06-22T14:46:19;12.90;;;11.90;;
43994;SDS011;51687;52.160;5.298;2023-06-22T14:48:47;13.57;;;12.50;;
43994;SDS011;51687;52.160;5.298;2023-06-22T14:51:14;12.77;;;11.70;;
43994;SDS011;51687;52.160;5.298;2023-06-22T14:53:43;12.93;;;11.73;;
43994;SDS011;51687;52.160;5.298;2023-06-22T14:56:11;13.02;;;11.98;;
43994;SDS011;51687;52.160;5.298;2023-06-22T14:58:40;13.77;;;12.43;;
43994;SDS011;51687;52.160;5.298;2023-06-22T15:01:12;13.55;;;12.57;;
43994;SDS011;51687;52.160;5.298;2023-06-22T15:03:39;14.50;;;13.40;;
43994;SDS011;51687;52.160;5.298;2023-06-22T15:06:07;13.52;;;12.45;;